Time;durP1;ratioP1;P1;durP2;ratioP2;P2;SDS_P1;SDS_P2;PMS_P1;PMS_P2;Temp;Humidity;BMP_temperature;BMP_pressure;BME280_temperature;BME280_humidity;BME280_pressure;Samples;Min_cycle;Max_cycle;Signal;HPM_P1;HPM_P2
2021/03/17 00:00:12;;;;;;;7.28;3.80;;;11.30;67.40;;;;;;5066676;28;20036;-77
2021/03/17 00:02:57;;;;;;;11.55;4.00;;;11.30;67.40;;;;;;5066082;28;20036;-77
2021/03/17 00:05:43;;;;;;;9.60;3.53;;;11.30;67.50;;;;;;5066280;28;20029;-76
2021/03/17 00:08:28;;;;;;;10.25;3.85;;;11.30;67.50;;;;;;5066121;28;20036;-77
2021/03/17 00:11:12;;;;;;;13.38;4.65;;;11.20;67.40;;;;;;5066204;28;20028;-77
2021/03/17 00:13:58;;;;;;;18.17;4.22;;;11.20;67.40;;;;;;5074898;28;20490;-77
2021/03/17 00:16:42;;;;;;;11.77;4.15;;;11.20;67.40;;;;;;5064612;28;20442;-77
2021/03/17 00:19:27;;;;;;;10.68;4.10;;;11.20;67.40;;;;;;5065309;28;20036;-77
2021/03/17 00:22:12;;;;;;;16.30;4.70;;;11.20;67.50;;;;;;5065255;28;20048;-77
2021/03/17 00:24:56;;;;;;;13.07;4.88;;;11.10;67.30;;;;;;5064430;28;20036;-77
2021/03/17 00:27:41;;;;;;;12.13;4.63;;;11.10;67.40;;;;;;5064337;28;20040;-77
2021/03/17 00:30:25;;;;;;;13.27;4.72;;;11.10;67.40;;;;;;5064872;28;20494;-77
2021/03/17 00:33:14;;;;;;;10.75;3.88;;;11.00;67.20;;;;;;5063898;28;20029;-77
2021/03/17 00:35:58;;;;;;;12.18;4.07;;;11.00;67.30;;;;;;5064195;28;20082;-77
2021/03/17 00:38:43;;;;;;;;;;;11.00;67.20;;;;;;5064723;28;20037;-77
2021/03/17 00:41:28;;;;;;;13.95;4.60;;;11.00;67.20;;;;;;5065565;28;19920;-77
2021/03/17 00:44:13;;;;;;;9.57;3.63;;;11.00;67.20;;;;;;5065562;28;20120;-76
2021/03/17 00:46:57;;;;;;;17.55;5.47;;;10.90;67.10;;;;;;5065561;28;20063;-76
2021/03/17 00:49:27;;;;;;;11.10;4.40;;;10.90;67.10;;;;;;5031050;28;20021;-76
2021/03/17 00:51:53;;;;;;;15.75;5.38;;;10.90;67.20;;;;;;5063697;28;20043;-76
2021/03/17 00:54:38;;;;;;;9.68;4.75;;;10.80;67.10;;;;;;5063622;28;20032;-77
2021/03/17 00:57:20;;;;;;;12.98;4.50;;;10.80;67.10;;;;;;5064850;28;20441;-76
2021/03/17 00:59:46;;;;;;;11.77;4.82;;;10.80;67.20;;;;;;5063486;28;20044;-75
2021/03/17 01:02:12;;;;;;;18.00;4.65;;;10.80;67.20;;;;;;5063723;28;20029;-76
2021/03/17 01:04:38;;;;;;;10.40;4.15;;;10.80;67.20;;;;;;5046540;28;20104;-76
2021/03/17 01:07:08;;;;;;;13.68;4.35;;;10.80;67.30;;;;;;5046865;28;20037;-75
2021/03/17 01:09:34;;;;;;;11.30;4.00;;;10.70;67.10;;;;;;5063254;28;20502;-75
2021/03/17 01:12:00;;;;;;;19.75;4.55;;;10.70;67.20;;;;;;5064453;28;20060;-76
2021/03/17 01:14:26;;;;;;;14.88;5.15;;;10.70;67.20;;;;;;5063314;28;20036;-75
2021/03/17 01:16:52;;;;;;;12.63;4.07;;;10.60;67.10;;;;;;5063595;28;20085;-76
2021/03/17 01:19:18;;;;;;;9.02;4.10;;;10.60;67.70;;;;;;5063273;28;20426;-76
2021/03/17 01:21:44;;;;;;;11.55;4.32;;;10.60;67.20;;;;;;5063317;28;20060;-76
2021/03/17 01:24:10;;;;;;;11.70;3.97;;;10.60;67.20;;;;;;5063531;28;20055;-76
2021/03/17 01:26:36;;;;;;;11.32;5.00;;;10.50;67.10;;;;;;5064934;28;20085;-76
2021/03/17 01:29:02;;;;;;;10.82;4.07;;;10.50;67.10;;;;;;5064726;28;20111;-76
2021/03/17 01:31:28;;;;;;;13.13;5.07;;;10.50;67.10;;;;;;5063332;28;20033;-76
2021/03/17 01:33:54;;;;;;;12.90;3.83;;;10.40;67.00;;;;;;5063070;28;20032;-77
2021/03/17 01:36:20;;;;;;;12.32;3.72;;;10.40;67.00;;;;;;5064628;28;20056;-76
2021/03/17 01:38:46;;;;;;;9.60;4.50;;;10.40;67.00;;;;;;5062782;28;20180;-76
2021/03/17 01:41:13;;;;;;;12.65;4.93;;;10.40;67.10;;;;;;5064511;28;20117;-76
2021/03/17 01:43:38;;;;;;;14.55;5.07;;;10.30;66.90;;;;;;5062982;28;20036;-77
2021/03/17 01:46:05;;;;;;;12.57;4.30;;;10.30;67.00;;;;;;5063814;28;20036;-76
2021/03/17 01:48:30;;;;;;;11.05;4.43;;;10.30;67.00;;;;;;5062757;28;20498;-77
2021/03/17 01:50:58;;;;;;;15.85;5.10;;;10.20;66.90;;;;;;5063320;28;20024;-76
2021/03/17 01:53:30;;;;;;;16.38;5.10;;;10.20;66.90;;;;;;5062651;28;20032;-76
2021/03/17 01:55:56;;;;;;;13.02;4.47;;;10.10;66.80;;;;;;5064755;28;20170;-76
2021/03/17 01:58:23;;;;;;;14.15;5.03;;;10.10;66.90;;;;;;5062617;28;20057;-76
2021/03/17 02:00:49;;;;;;;15.45;4.75;;;10.10;67.00;;;;;;5065747;28;20177;-77
2021/03/17 02:03:16;;;;;;;12.23;4.95;;;10.10;67.00;;;;;;5050336;28;20033;-76
2021/03/17 02:05:44;;;;;;;12.70;4.90;;;10.00;67.40;;;;;;5068151;28;20604;-77
2021/03/17 02:08:20;;;;;;;12.48;4.90;;;10.00;66.90;;;;;;5067093;28;20047;-77
2021/03/17 02:10:47;;;;;;;16.25;5.28;;;10.00;67.00;;;;;;5066706;28;20136;-77
2021/03/17 02:13:43;;;;;;;11.85;4.18;;;10.00;67.00;;;;;;5050435;28;20530;-77
2021/03/17 02:16:09;;;;;;;11.90;4.53;;;9.90;66.90;;;;;;5068554;28;20029;-76
2021/03/17 02:18:47;;;;;;;15.82;4.32;;;9.90;66.90;;;;;;5068293;28;20063;-77
2021/03/17 02:21:15;;;;;;;11.02;4.32;;;9.90;66.90;;;;;;5066594;28;20120;-77
2021/03/17 02:24:05;;;;;;;10.80;4.10;;;9.90;66.90;;;;;;5068200;28;20093;-76
2021/03/17 02:27:18;;;;;;;13.05;5.25;;;9.80;66.80;;;;;;5050398;28;20392;-77
2021/03/17 02:29:47;;;;;;;15.48;3.85;;;9.80;66.90;;;;;;5040985;28;20048;-76
2021/03/17 02:32:16;;;;;;;10.73;4.32;;;9.70;66.70;;;;;;5067447;28;20047;-77
2021/03/17 02:34:45;;;;;;;10.00;3.97;;;9.70;66.80;;;;;;5069748;28;20131;-77
2021/03/17 02:37:18;;;;;;;10.25;4.50;;;9.70;66.80;;;;;;5069129;28;20029;-78
2021/03/17 02:39:51;;;;;;;12.82;4.97;;;9.70;66.90;;;;;;5068262;28;20040;-76
2021/03/17 02:42:34;;;;;;;15.77;4.97;;;9.70;66.90;;;;;;5069431;28;20028;-76
2021/03/17 02:45:14;;;;;;;13.48;5.50;;;9.60;66.80;;;;;;5051406;28;20116;-76
2021/03/17 02:48:02;;;;;;;9.00;3.72;;;9.60;66.80;;;;;;5051069;28;20456;-77
2021/03/17 02:50:30;;;;;;;14.00;4.75;;;9.60;66.80;;;;;;5052387;28;20374;-76
2021/03/17 02:52:58;;;;;;;10.40;4.07;;;9.60;66.90;;;;;;5065063;28;20128;-77
2021/03/17 02:55:31;;;;;;;8.55;3.90;;;9.60;66.90;;;;;;5054200;28;20036;-75
2021/03/17 02:57:59;;;;;;;11.82;4.68;;;9.50;66.80;;;;;;5070464;28;20128;-77
2021/03/17 03:00:27;;;;;;;11.18;4.15;;;9.50;66.80;;;;;;5053689;28;20063;-76
2021/03/17 03:02:55;;;;;;;11.60;5.53;;;9.50;66.80;;;;;;5054480;28;20107;-75
2021/03/17 03:05:22;;;;;;;10.95;5.30;;;9.50;66.80;;;;;;5070596;28;20130;-75
2021/03/17 03:07:52;;;;;;;12.70;4.63;;;9.50;66.90;;;;;;5071113;28;20422;-77
2021/03/17 03:10:20;;;;;;;11.57;4.72;;;9.50;66.90;;;;;;5071070;28;20029;-77
2021/03/17 03:12:48;;;;;;;14.02;4.32;;;9.50;66.90;;;;;;5069413;28;20028;-75
2021/03/17 03:15:17;;;;;;;10.27;4.03;;;9.50;66.90;;;;;;5070610;28;20032;-76
2021/03/17 03:17:44;;;;;;;13.18;4.78;;;9.50;66.90;;;;;;5053824;28;20025;-75
2021/03/17 03:20:13;;;;;;;10.27;4.53;;;9.40;66.80;;;;;;5070400;28;20033;-76
2021/03/17 03:22:45;;;;;;;14.45;4.63;;;9.40;66.80;;;;;;5071809;28;20025;-76
2021/03/17 03:25:13;;;;;;;11.80;4.45;;;9.40;66.90;;;;;;5070597;28;20487;-76
2021/03/17 03:27:39;;;;;;;12.32;4.20;;;9.40;66.90;;;;;;5072469;28;20274;-76
2021/03/17 03:30:18;;;;;;;14.57;4.90;;;9.40;66.90;;;;;;5071943;28;20059;-78
2021/03/17 03:32:44;;;;;;;11.88;3.85;;;9.40;66.90;;;;;;5070431;28;20024;-76
2021/03/17 03:35:13;;;;;;;9.57;4.32;;;9.30;66.70;;;;;;5070708;28;20127;-76
2021/03/17 03:37:39;;;;;;;12.50;5.57;;;9.40;66.90;;;;;;5053768;28;20032;-76
2021/03/17 03:40:12;;;;;;;15.85;5.35;;;9.30;66.80;;;;;;5053583;28;20364;-75
2021/03/17 03:42:38;;;;;;;12.25;4.43;;;9.30;66.80;;;;;;5071250;28;20472;-75
2021/03/17 03:45:07;;;;;;;10.35;4.60;;;9.30;66.90;;;;;;5070084;28;20484;-77
2021/03/17 03:47:33;;;;;;;10.85;4.05;;;9.30;66.90;;;;;;5053209;28;20082;-76
2021/03/17 03:50:00;;;;;;;9.43;4.20;;;9.30;66.90;;;;;;5070055;28;20032;-76
2021/03/17 03:52:35;;;;;;;13.02;4.78;;;9.30;66.90;;;;;;5069862;28;20048;-76
2021/03/17 03:55:12;;;;;;;15.27;4.38;;;9.30;67.00;;;;;;5053323;28;20036;-76
2021/03/17 03:57:46;;;;;;;12.77;4.78;;;9.20;66.80;;;;;;5052650;28;20090;-76
2021/03/17 04:00:15;;;;;;;11.90;4.80;;;9.20;66.80;;;;;;5069879;28;20047;-76
2021/03/17 04:02:47;;;;;;;8.57;4.03;;;9.20;66.80;;;;;;5069557;28;20416;-77
2021/03/17 04:05:18;;;;;;;14.02;4.43;;;9.20;66.80;;;;;;5053518;28;20033;-76
2021/03/17 04:07:48;;;;;;;15.40;4.03;;;9.20;66.90;;;;;;5070734;28;20357;-76
2021/03/17 04:10:15;;;;;;;11.90;4.10;;;9.20;66.90;;;;;;5052766;28;20043;-78
2021/03/17 04:12:43;;;;;;;12.48;4.60;;;9.10;66.70;;;;;;5083040;28;20459;-77
2021/03/17 04:15:15;;;;;;;17.70;5.15;;;9.10;66.70;;;;;;5089610;28;20035;-78
2021/03/17 04:18:00;;;;;;;11.90;4.70;;;9.10;66.80;;;;;;5089233;28;20028;-76
2021/03/17 04:20:34;;;;;;;11.18;5.05;;;9.10;66.80;;;;;;5090755;28;20473;-77
2021/03/17 04:23:02;;;;;;;12.68;4.22;;;9.10;66.80;;;;;;5088804;28;20036;-76
2021/03/17 04:25:31;;;;;;;9.93;4.38;;;9.10;66.80;;;;;;5090853;28;20035;-77
2021/03/17 04:27:59;;;;;;;11.95;4.50;;;9.00;66.60;;;;;;5072610;28;20032;-76
2021/03/17 04:30:26;;;;;;;10.98;4.95;;;9.00;66.70;;;;;;5072637;28;20035;-76
2021/03/17 04:32:54;;;;;;;11.43;4.40;;;9.00;66.70;;;;;;5089352;28;20061;-78
2021/03/17 04:35:21;;;;;;;14.23;4.15;;;9.00;66.70;;;;;;5090686;28;20428;-77
2021/03/17 04:37:50;;;;;;;16.13;5.65;;;8.90;66.60;;;;;;5089505;28;20479;-78
2021/03/17 04:40:17;;;;;;;15.00;5.55;;;9.00;66.80;;;;;;5072054;28;20039;-76
2021/03/17 04:42:44;;;;;;;13.00;3.88;;;8.90;66.60;;;;;;5090618;28;20424;-77
2021/03/17 04:45:12;;;;;;;12.13;4.43;;;8.90;66.60;;;;;;5090806;28;20031;-77
2021/03/17 04:47:40;;;;;;;10.15;4.32;;;8.90;66.70;;;;;;5088883;28;20509;-77
2021/03/17 04:50:09;;;;;;;10.98;4.22;;;8.80;66.50;;;;;;5090560;28;20121;-76
2021/03/17 04:52:38;;;;;;;17.88;4.45;;;8.80;66.50;;;;;;5090254;28;20031;-75
2021/03/17 04:55:05;;;;;;;12.38;4.68;;;8.70;66.30;;;;;;5071728;28;20459;-75
2021/03/17 04:57:35;;;;;;;10.88;3.95;;;8.70;66.40;;;;;;5088424;28;20105;-77
2021/03/17 05:00:03;;;;;;;11.80;4.30;;;8.70;66.40;;;;;;5090249;28;20035;-77
2021/03/17 05:02:31;;;;;;;13.45;5.00;;;8.60;66.20;;;;;;5088811;28;20075;-76
2021/03/17 05:04:58;;;;;;;9.30;4.03;;;8.50;66.10;;;;;;5088624;28;20020;-76
2021/03/17 05:07:25;;;;;;;15.18;4.15;;;8.50;66.20;;;;;;5088587;28;20035;-76
2021/03/17 05:09:53;;;;;;;13.02;4.68;;;8.50;66.20;;;;;;5071560;28;20371;-77
2021/03/17 05:12:19;;;;;;;8.32;4.43;;;8.40;66.00;;;;;;5072314;28;20026;-78
2021/03/17 05:14:45;;;;;;;11.57;3.72;;;8.40;66.10;;;;;;5072699;28;20047;-77
2021/03/17 05:17:13;;;;;;;14.90;5.05;;;8.40;66.10;;;;;;5090121;28;20027;-77
2021/03/17 05:19:41;;;;;;;13.43;4.63;;;8.30;66.00;;;;;;5088662;28;20051;-78
2021/03/17 05:22:09;;;;;;;9.70;4.10;;;8.30;66.10;;;;;;5094227;28;20420;-76
2021/03/17 05:24:37;;;;;;;8.40;3.60;;;8.30;66.10;;;;;;5071752;28;20116;-77
2021/03/17 05:27:08;;;;;;;8.18;4.07;;;8.20;66.00;;;;;;5088613;28;20027;-76
2021/03/17 05:29:38;;;;;;;13.18;4.90;;;8.20;66.10;;;;;;5088347;28;20039;-76
2021/03/17 05:32:05;;;;;;;8.63;3.45;;;8.10;65.90;;;;;;5071691;28;20044;-76
2021/03/17 05:34:41;;;;;;;9.88;4.70;;;8.10;66.00;;;;;;5070636;28;20020;-76
2021/03/17 05:37:06;;;;;;;8.45;4.00;;;8.00;65.90;;;;;;5088159;28;20114;-76
2021/03/17 05:39:32;;;;;;;12.13;4.10;;;8.00;65.90;;;;;;5071221;28;20437;-76
2021/03/17 05:41:58;;;;;;;10.50;4.20;;;8.00;66.00;;;;;;5088468;28;20386;-76
2021/03/17 05:44:25;;;;;;;11.13;3.72;;;8.00;66.00;;;;;;5088388;28;20044;-77
2021/03/17 05:46:51;;;;;;;11.90;4.00;;;8.00;66.00;;;;;;5088411;28;20031;-75
2021/03/17 05:49:19;;;;;;;12.80;4.55;;;7.90;65.90;;;;;;5061689;28;20730;-76
2021/03/17 05:51:46;;;;;;;10.27;5.07;;;7.90;65.90;;;;;;5046212;28;20037;-76
2021/03/17 05:54:12;;;;;;;8.95;3.80;;;7.80;65.80;;;;;;5046007;28;20453;-76
2021/03/17 05:56:38;;;;;;;11.13;3.92;;;7.80;65.80;;;;;;5045985;28;20067;-77
2021/03/17 05:59:04;;;;;;;11.52;4.70;;;7.70;65.70;;;;;;5056873;28;20113;-76
2021/03/17 06:01:31;;;;;;;14.77;3.55;;;7.70;65.70;;;;;;5066220;28;20037;-76
2021/03/17 06:03:58;;;;;;;8.68;3.47;;;7.70;65.70;;;;;;5047886;28;20021;-77
2021/03/17 06:06:26;;;;;;;8.98;3.72;;;7.60;65.60;;;;;;5043169;28;20083;-77
2021/03/17 06:08:58;;;;;;;12.02;4.13;;;7.60;65.60;;;;;;5053730;28;20051;-77
2021/03/17 06:11:26;;;;;;;15.75;4.35;;;7.50;65.50;;;;;;5062618;28;20039;-75
2021/03/17 06:13:53;;;;;;;12.43;4.22;;;7.50;65.50;;;;;;5064404;28;20303;-76
2021/03/17 06:16:22;;;;;;;10.38;3.67;;;7.50;65.50;;;;;;5046845;28;20036;-78
2021/03/17 06:18:52;;;;;;;9.80;4.57;;;7.40;65.40;;;;;;5065242;28;20062;-79
2021/03/17 06:21:19;;;;;;;12.23;3.90;;;7.40;65.50;;;;;;5063055;28;20044;-81
2021/03/17 06:23:52;;;;;;;7.22;4.10;;;7.40;65.50;;;;;;5063178;28;20025;-81
2021/03/17 06:26:19;;;;;;;15.05;5.43;;;7.40;65.60;;;;;;5064526;28;20081;-78
2021/03/17 06:28:46;;;;;;;18.42;5.20;;;7.40;66.00;;;;;;5064841;28;20048;-77
2021/03/17 06:31:13;;;;;;;11.77;3.90;;;7.50;66.50;;;;;;5064137;28;20036;-77
2021/03/17 06:33:41;;;;;;;15.68;4.90;;;7.60;66.60;;;;;;5064895;28;20036;-76
2021/03/17 06:36:27;;;;;;;14.43;5.63;;;7.70;66.80;;;;;;5063200;28;20028;-77
2021/03/17 06:39:09;;;;;;;17.50;4.40;;;7.80;67.30;;;;;;5046206;28;20391;-77
2021/03/17 06:41:43;;;;;;;15.13;4.38;;;7.90;67.40;;;;;;5062333;28;20407;-77
2021/03/17 06:44:09;;;;;;;14.52;4.85;;;8.00;67.40;;;;;;5064248;28;20081;-75
2021/03/17 06:46:35;;;;;;;11.27;4.15;;;8.00;67.20;;;;;;5066494;28;20654;-77
2021/03/17 06:49:02;;;;;;;13.27;4.53;;;8.00;67.30;;;;;;5067746;28;20115;-78
2021/03/17 06:51:32;;;;;;;14.30;4.63;;;8.00;67.30;;;;;;5050152;28;20515;-79
2021/03/17 06:54:03;;;;;;;7.05;4.00;;;8.00;67.50;;;;;;5066607;28;20039;-79
2021/03/17 06:56:33;;;;;;;11.18;4.68;;;7.90;67.30;;;;;;5050276;28;20472;-81
2021/03/17 06:59:04;;;;;;;9.50;3.45;;;7.90;67.30;;;;;;5046722;28;20029;-84
2021/03/17 07:01:40;;;;;;;9.85;4.30;;;7.90;67.50;;;;;;5049794;28;20079;-82
2021/03/17 07:04:10;;;;;;;9.40;3.92;;;7.90;67.50;;;;;;5067745;28;20032;-81
2021/03/17 07:06:41;;;;;;;9.30;4.28;;;7.80;67.40;;;;;;5067129;28;20043;-77
2021/03/17 07:09:26;;;;;;;11.75;4.22;;;7.90;67.60;;;;;;5045739;28;20036;-78
2021/03/17 07:12:07;;;;;;;10.80;4.38;;;7.90;67.70;;;;;;5049962;28;20384;-77
2021/03/17 07:14:40;;;;;;;13.38;4.28;;;7.80;67.60;;;;;;5057901;28;20482;-76
2021/03/17 07:17:25;;;;;;;16.20;4.57;;;7.90;67.70;;;;;;5063702;28;20423;-76
2021/03/17 07:19:51;;;;;;;10.50;4.95;;;7.80;67.60;;;;;;5064169;28;20078;-76
2021/03/17 07:22:18;;;;;;;7.47;3.22;;;7.80;67.50;;;;;;5064583;28;20390;-75
2021/03/17 07:24:46;;;;;;;9.32;3.85;;;7.80;67.60;;;;;;5063650;28;20140;-76
2021/03/17 07:27:17;;;;;;;7.32;3.88;;;7.80;67.60;;;;;;5063861;28;20111;-75
2021/03/17 07:29:57;;;;;;;12.18;4.88;;;7.90;67.80;;;;;;5063584;28;20051;-75
2021/03/17 07:32:23;;;;;;;17.83;5.13;;;7.90;67.80;;;;;;5066196;28;20038;-79
2021/03/17 07:34:49;;;;;;;12.73;4.13;;;7.90;67.80;;;;;;5048742;28;20056;-79
2021/03/17 07:37:15;;;;;;;9.95;4.18;;;7.90;67.70;;;;;;5064780;28;20087;-76
2021/03/17 07:39:43;;;;;;;13.90;4.80;;;7.90;67.70;;;;;;5065054;28;20052;-77
2021/03/17 07:42:11;;;;;;;12.65;4.88;;;8.00;67.90;;;;;;5066659;28;20495;-77
2021/03/17 07:44:40;;;;;;;12.02;4.63;;;8.00;67.90;;;;;;5065227;28;20067;-78
2021/03/17 07:47:08;;;;;;;12.48;4.20;;;8.00;67.90;;;;;;5066697;28;20396;-77
2021/03/17 07:49:36;;;;;;;11.85;4.97;;;8.10;68.10;;;;;;5049029;28;20039;-76
2021/03/17 07:52:04;;;;;;;12.25;4.18;;;8.10;68.00;;;;;;5065121;28;20033;-77
2021/03/17 07:54:33;;;;;;;9.05;4.35;;;8.10;68.00;;;;;;5065204;28;20028;-76
2021/03/17 07:57:00;;;;;;;12.18;5.13;;;8.10;67.90;;;;;;5064192;28;20075;-77
2021/03/17 07:59:26;;;;;;;7.75;4.15;;;8.20;68.10;;;;;;5064667;28;20074;-77
2021/03/17 08:01:55;;;;;;;13.05;4.13;;;8.30;68.20;;;;;;5066345;28;20044;-77
2021/03/17 08:04:30;;;;;;;10.30;4.72;;;8.30;68.10;;;;;;5065067;28;20032;-77
2021/03/17 08:06:56;;;;;;;13.48;4.88;;;8.40;68.30;;;;;;5064528;28;20036;-77
2021/03/17 08:09:23;;;;;;;14.77;4.65;;;8.40;68.20;;;;;;5064990;28;20032;-78
2021/03/17 08:11:51;;;;;;;7.70;4.25;;;8.50;68.30;;;;;;5098628;28;20126;-76
2021/03/17 08:14:18;;;;;;;14.30;5.25;;;8.50;68.20;;;;;;5065962;28;20021;-76
2021/03/17 08:16:45;;;;;;;13.63;5.55;;;8.60;68.30;;;;;;5048222;28;20056;-78
2021/03/17 08:19:28;;;;;;;14.77;5.20;;;8.70;68.40;;;;;;5063753;28;20491;-77
2021/03/17 08:22:00;;;;;;;13.80;5.82;;;8.70;68.40;;;;;;5064003;28;20547;-77
2021/03/17 08:24:40;;;;;;;15.05;5.70;;;8.80;68.40;;;;;;5064009;28;20056;-77
2021/03/17 08:27:06;;;;;;;10.52;5.03;;;8.90;68.50;;;;;;5064661;28;20051;-77
2021/03/17 08:29:40;;;;;;;11.10;4.70;;;8.90;68.30;;;;;;5064328;28;20024;-76
2021/03/17 08:32:07;;;;;;;12.52;4.30;;;9.00;68.50;;;;;;5064427;28;20473;-75
2021/03/17 08:34:34;;;;;;;12.45;5.15;;;9.10;68.50;;;;;;5066167;28;20075;-76
2021/03/17 08:37:02;;;;;;;18.13;6.88;;;9.10;68.50;;;;;;5065375;28;20395;-76
2021/03/17 08:39:34;;;;;;;9.63;5.15;;;9.30;68.70;;;;;;5064281;28;20160;-74
2021/03/17 08:42:03;;;;;;;11.27;5.85;;;9.30;68.70;;;;;;5058045;28;20124;-75
2021/03/17 08:44:30;;;;;;;14.05;5.38;;;9.40;68.70;;;;;;5064595;28;20414;-75
2021/03/17 08:47:12;;;;;;;12.63;5.65;;;9.50;68.80;;;;;;5040013;28;20438;-75
2021/03/17 08:49:38;;;;;;;12.60;5.68;;;9.50;68.70;;;;;;5043914;28;20041;-76
2021/03/17 08:52:09;;;;;;;19.02;6.28;;;9.60;68.70;;;;;;5047088;28;20048;-77
2021/03/17 08:54:37;;;;;;;12.00;5.22;;;9.70;68.80;;;;;;5063740;28;20029;-76
2021/03/17 08:57:07;;;;;;;13.43;5.32;;;9.80;68.90;;;;;;5063419;28;20139;-75
2021/03/17 08:59:51;;;;;;;11.98;5.30;;;9.90;68.90;;;;;;5063490;28;20186;-76
2021/03/17 09:02:20;;;;;;;13.65;5.75;;;10.00;68.90;;;;;;5063364;28;20039;-76
2021/03/17 09:04:50;;;;;;;11.40;4.70;;;10.10;68.90;;;;;;5065118;28;20119;-76
2021/03/17 09:07:18;;;;;;;14.32;5.88;;;10.20;69.00;;;;;;5063293;28;20110;-76
2021/03/17 09:09:49;;;;;;;16.20;6.07;;;10.20;68.80;;;;;;5063443;28;20033;-77
2021/03/17 09:12:36;;;;;;;9.52;5.35;;;10.30;68.90;;;;;;5059274;28;20028;-77
2021/03/17 09:15:14;;;;;;;16.90;5.85;;;10.40;69.00;;;;;;5062502;28;20078;-77
2021/03/17 09:17:55;;;;;;;13.20;5.05;;;10.50;69.10;;;;;;5059723;28;20399;-77
2021/03/17 09:20:34;;;;;;;17.77;6.07;;;10.60;69.10;;;;;;5069828;28;20052;-77
2021/03/17 09:23:02;;;;;;;17.42;5.30;;;10.70;69.20;;;;;;5063645;28;20108;-78
2021/03/17 09:25:35;;;;;;;13.07;5.68;;;10.70;69.00;;;;;;5063538;28;20028;-76
2021/03/17 09:28:06;;;;;;;12.48;5.35;;;10.80;69.00;;;;;;5064541;28;20476;-76
2021/03/17 09:30:45;;;;;;;12.35;5.10;;;10.90;69.60;;;;;;5063002;28;20432;-77
2021/03/17 09:33:17;;;;;;;8.57;5.10;;;11.00;69.10;;;;;;5059186;28;20412;-78
2021/03/17 09:35:52;;;;;;;14.57;5.45;;;11.10;69.20;;;;;;5063783;28;20102;-76
2021/03/17 09:38:19;;;;;;;11.55;5.00;;;11.10;69.10;;;;;;5062591;28;20029;-77
2021/03/17 09:40:52;;;;;;;9.38;5.28;;;11.20;69.10;;;;;;5062890;28;20089;-77
2021/03/17 09:43:33;;;;;;;12.57;5.20;;;11.30;69.20;;;;;;5052378;28;20040;-77
2021/03/17 09:46:00;;;;;;;15.45;5.88;;;11.30;69.10;;;;;;5063021;28;20440;-76
2021/03/17 09:48:27;;;;;;;17.80;4.93;;;11.40;69.10;;;;;;5046296;28;20033;-77
2021/03/17 09:50:58;;;;;;;12.55;6.30;;;11.40;69.00;;;;;;5046593;28;20441;-76
2021/03/17 09:53:25;;;;;;;12.27;6.05;;;11.50;69.10;;;;;;5046582;28;20036;-77
2021/03/17 09:55:51;;;;;;;14.13;5.70;;;11.50;69.00;;;;;;5086872;28;20127;-76
2021/03/17 09:58:17;;;;;;;14.23;6.32;;;11.50;68.90;;;;;;5078405;28;20118;-77
2021/03/17 10:00:47;;;;;;;12.23;5.70;;;11.50;68.90;;;;;;5043466;28;20045;-77
2021/03/17 10:03:15;;;;;;;12.88;5.38;;;11.60;69.00;;;;;;5052823;28;20387;-76
2021/03/17 10:05:42;;;;;;;12.38;5.85;;;11.60;68.90;;;;;;5064568;28;20043;-76
2021/03/17 10:08:08;;;;;;;10.85;5.75;;;11.70;69.00;;;;;;5063430;28;20579;-76
2021/03/17 10:10:35;;;;;;;11.85;4.95;;;11.70;69.00;;;;;;5064342;28;20135;-75
2021/03/17 10:13:02;;;;;;;14.25;5.50;;;11.80;69.10;;;;;;5046015;28;20043;-75
2021/03/17 10:15:28;;;;;;;16.77;5.47;;;11.90;69.20;;;;;;5062923;28;20025;-76
2021/03/17 10:17:57;;;;;;;14.57;5.72;;;12.00;69.20;;;;;;5064099;28;20040;-76
2021/03/17 10:20:26;;;;;;;15.05;5.15;;;12.10;69.20;;;;;;5046314;28;20044;-75
2021/03/17 10:22:59;;;;;;;11.10;5.22;;;12.10;69.00;;;;;;5065519;28;20025;-76
2021/03/17 10:25:28;;;;;;;12.30;5.90;;;12.30;69.20;;;;;;5049907;28;20032;-75
2021/03/17 10:28:04;;;;;;;9.00;4.88;;;12.30;69.10;;;;;;5050028;28;20179;-76
2021/03/17 10:30:39;;;;;;;9.85;5.10;;;12.50;69.20;;;;;;5066692;28;20092;-76
2021/03/17 10:33:19;;;;;;;10.73;5.22;;;12.60;69.10;;;;;;5066438;28;20036;-76
2021/03/17 10:35:47;;;;;;;9.63;4.70;;;12.80;69.30;;;;;;5066246;28;20111;-74
2021/03/17 10:38:13;;;;;;;11.95;5.35;;;12.90;69.30;;;;;;5066684;28;20028;-80
2021/03/17 10:40:40;;;;;;;17.08;4.80;;;13.10;69.40;;;;;;5066743;28;20117;-77
2021/03/17 10:43:12;;;;;;;9.15;4.25;;;13.20;69.60;;;;;;5049444;28;20020;-77
2021/03/17 10:45:52;;;;;;;7.80;4.03;;;13.40;69.90;;;;;;5049163;28;20031;-76
2021/03/17 10:48:24;;;;;;;14.63;4.85;;;13.60;69.90;;;;;;5065859;28;20032;-77
2021/03/17 10:50:52;;;;;;;12.57;4.97;;;13.70;69.80;;;;;;5049780;28;20058;-76
2021/03/17 10:53:20;;;;;;;8.27;4.57;;;13.90;69.80;;;;;;5065902;28;20715;-76
2021/03/17 10:55:48;;;;;;;12.15;4.93;;;14.00;69.70;;;;;;5065229;28;20031;-76
2021/03/17 10:58:31;;;;;;;10.68;4.55;;;14.10;69.70;;;;;;5065817;28;20412;-76
2021/03/17 11:01:00;;;;;;;13.55;5.70;;;14.20;69.50;;;;;;5066050;28;20510;-77
2021/03/17 11:03:32;;;;;;;10.57;4.68;;;14.40;69.70;;;;;;5067399;28;20032;-78
2021/03/17 11:06:18;;;;;;;8.63;3.60;;;14.50;69.60;;;;;;5049167;28;20605;-76
2021/03/17 11:09:05;;;;;;;12.15;4.65;;;14.60;69.50;;;;;;5049212;28;20032;-76
2021/03/17 11:11:34;;;;;;;9.30;3.72;;;14.70;69.30;;;;;;5066072;28;20044;-76
2021/03/17 11:14:00;;;;;;;10.43;4.55;;;14.90;69.60;;;;;;5065876;28;20094;-75
2021/03/17 11:16:35;;;;;;;10.35;4.32;;;15.00;69.60;;;;;;5067678;28;20352;-78
2021/03/17 11:19:12;;;;;;;11.20;5.30;;;15.10;69.30;;;;;;5068900;28;20061;-76
2021/03/17 11:21:40;;;;;;;10.70;6.43;;;15.20;69.30;;;;;;5084423;28;20447;-76
2021/03/17 11:24:20;;;;;;;14.35;6.45;;;15.30;69.30;;;;;;5069872;28;20128;-76
2021/03/17 11:26:48;;;;;;;9.30;6.03;;;15.40;69.10;;;;;;5048942;28;20029;-76
2021/03/17 11:29:18;;;;;;;10.90;6.65;;;15.40;69.00;;;;;;5065913;28;20445;-75
2021/03/17 11:31:50;;;;;;;13.88;6.53;;;15.50;69.00;;;;;;5065036;28;20020;-75
2021/03/17 11:34:18;;;;;;;12.05;7.53;;;15.60;68.90;;;;;;5047721;28;20025;-76
2021/03/17 11:36:44;;;;;;;10.82;6.57;;;15.70;69.00;;;;;;5066914;28;20447;-76
2021/03/17 11:39:12;;;;;;;8.18;5.38;;;15.70;68.80;;;;;;5064705;28;20043;-76
2021/03/17 11:41:44;;;;;;;15.43;6.13;;;15.80;68.80;;;;;;5066430;28;20112;-77
2021/03/17 11:44:14;;;;;;;9.75;5.53;;;15.90;68.80;;;;;;5070199;28;20360;-76
2021/03/17 11:46:40;;;;;;;11.43;5.85;;;15.90;68.60;;;;;;5066941;28;20440;-77
2021/03/17 11:49:06;;;;;;;11.27;6.07;;;16.00;68.60;;;;;;5064894;28;20107;-75
2021/03/17 11:51:32;;;;;;;14.52;6.22;;;16.00;68.40;;;;;;5064582;28;20031;-76
2021/03/17 11:53:58;;;;;;;11.38;5.43;;;16.10;68.30;;;;;;5066029;28;20024;-76
2021/03/17 11:56:24;;;;;;;10.57;5.72;;;16.20;68.20;;;;;;5065163;28;20041;-76
2021/03/17 11:58:50;;;;;;;10.48;4.82;;;16.20;68.00;;;;;;5066086;28;20044;-76
2021/03/17 12:01:16;;;;;;;10.50;4.93;;;16.20;67.90;;;;;;5065956;28;20086;-76
2021/03/17 12:03:42;;;;;;;14.23;5.15;;;16.20;67.70;;;;;;5047764;28;20104;-76
2021/03/17 12:06:09;;;;;;;12.88;5.47;;;16.20;67.60;;;;;;5066262;28;20516;-76
2021/03/17 12:08:36;;;;;;;13.98;5.38;;;16.20;67.40;;;;;;5065209;28;20024;-77
2021/03/17 12:11:03;;;;;;;11.77;5.18;;;16.20;67.30;;;;;;5064058;28;20055;-76
2021/03/17 12:13:29;;;;;;;11.43;5.00;;;16.20;67.20;;;;;;5064160;28;20066;-77
2021/03/17 12:15:55;;;;;;;11.50;4.95;;;16.30;67.30;;;;;;5064360;28;20403;-77
2021/03/17 12:18:22;;;;;;;14.18;5.18;;;16.30;67.10;;;;;;5064918;28;20119;-77
2021/03/17 12:20:48;;;;;;;15.90;5.65;;;16.30;67.50;;;;;;5074446;28;20088;-75
2021/03/17 12:23:17;;;;;;;16.83;6.47;;;16.30;66.60;;;;;;5058093;28;20032;-76
2021/03/17 12:25:43;;;;;;;16.63;5.70;;;16.30;66.50;;;;;;5063771;28;20032;-76
2021/03/17 12:28:09;;;;;;;16.02;5.40;;;16.30;66.50;;;;;;5064184;28;20025;-75
2021/03/17 12:30:35;;;;;;;18.45;5.75;;;16.40;66.60;;;;;;5065586;28;20061;-76
2021/03/17 12:33:02;;;;;;;16.48;6.47;;;16.50;66.80;;;;;;5047334;28;20035;-76
2021/03/17 12:35:28;;;;;;;18.63;5.53;;;16.60;66.80;;;;;;5063709;28;20033;-76
2021/03/17 12:37:55;;;;;;;14.43;5.82;;;16.60;66.60;;;;;;5063602;28;20044;-78
2021/03/17 12:40:24;;;;;;;15.18;5.65;;;16.70;66.70;;;;;;5063855;28;20024;-77
2021/03/17 12:42:50;;;;;;;11.40;5.35;;;16.80;66.60;;;;;;5063620;28;20028;-77
2021/03/17 12:45:20;;;;;;;9.57;5.15;;;17.00;66.80;;;;;;5064409;28;20041;-77
2021/03/17 12:47:46;;;;;;;14.05;5.45;;;17.10;66.80;;;;;;5063756;28;20063;-78
2021/03/17 12:50:15;;;;;;;9.23;4.47;;;17.10;66.60;;;;;;5064161;28;20635;-76
2021/03/17 12:52:42;;;;;;;10.10;4.75;;;17.10;66.40;;;;;;5064622;28;20463;-77
2021/03/17 12:55:08;;;;;;;13.75;5.60;;;17.20;66.50;;;;;;5046029;28;20055;-77
2021/03/17 12:57:35;;;;;;;14.18;5.45;;;17.20;66.30;;;;;;5046944;28;20116;-78
2021/03/17 13:00:11;;;;;;;17.23;6.15;;;17.30;66.40;;;;;;5063405;28;20582;-76